sensor_id;sensor_type;location;lat;lon;timestamp;temperature;humidity
20081;DHT22;10200;49.232;9.222;2023-04-03T00:01:31;5.50;87.70
20081;DHT22;10200;49.232;9.222;2023-04-03T00:03:57;5.50;88.00
20081;DHT22;10200;49.232;9.222;2023-04-03T00:06:23;5.50;87.70
20081;DHT22;10200;49.232;9.222;2023-04-03T00:08:50;5.50;88.90
20081;DHT22;10200;49.232;9.222;2023-04-03T00:11:16;5.50;88.60
20081;DHT22;10200;49.232;9.222;2023-04-03T00:13:43;5.50;88.60
20081;DHT22;10200;49.232;9.222;2023-04-03T00:16:09;5.60;88.90
20081;DHT22;10200;49.232;9.222;2023-04-03T00:18:36;5.50;89.10
20081;DHT22;10200;49.232;9.222;2023-04-03T00:21:03;5.70;89.30
20081;DHT22;10200;49.232;9.222;2023-04-03T00:23:28;5.60;89.10
20081;DHT22;10200;49.232;9.222;2023-04-03T00:25:56;5.60;89.50
20081;DHT22;10200;49.232;9.222;2023-04-03T00:28:22;5.60;89.70
20081;DHT22;10200;49.232;9.222;2023-04-03T00:30:51;5.50;89.40
20081;DHT22;10200;49.232;9.222;2023-04-03T00:33:17;5.60;89.70
20081;DHT22;10200;49.232;9.222;2023-04-03T00:35:43;5.60;89.40
20081;DHT22;10200;49.232;9.222;2023-04-03T00:38:08;5.50;89.20
20081;DHT22;10200;49.232;9.222;2023-04-03T00:40:37;5.50;89.40
20081;DHT22;10200;49.232;9.222;2023-04-03T00:43:14;5.50;89.30
20081;DHT22;10200;49.232;9.222;2023-04-03T00:45:44;5.50;88.90
20081;DHT22;10200;49.232;9.222;2023-04-03T00:48:46;5.50;89.20
20081;DHT22;10200;49.232;9.222;2023-04-03T00:51:07;5.50;89.10
20081;DHT22;10200;49.232;9.222;2023-04-03T00:53:39;5.50;88.90
20081;DHT22;10200;49.232;9.222;2023-04-03T00:56:07;5.40;88.80
20081;DHT22;10200;49.232;9.222;2023-04-03T00:58:38;5.50;89.80
20081;DHT22;10200;49.232;9.222;2023-04-03T01:01:08;5.40;89.90
20081;DHT22;10200;49.232;9.222;2023-04-03T01:03:36;5.40;89.90
20081;DHT22;10200;49.232;9.222;2023-04-03T01:06:02;5.50;90.20
20081;DHT22;10200;49.232;9.222;2023-04-03T01:08:28;5.50;90.10
20081;DHT22;10200;49.232;9.222;2023-04-03T01:10:54;5.50;90.10
20081;DHT22;10200;49.232;9.222;2023-04-03T01:13:26;5.50;90.20
20081;DHT22;10200;49.232;9.222;2023-04-03T01:15:52;5.50;90.20
20081;DHT22;10200;49.232;9.222;2023-04-03T01:18:18;5.50;90.30
20081;DHT22;10200;49.232;9.222;2023-04-03T01:21:23;5.50;90.20
20081;DHT22;10200;49.232;9.222;2023-04-03T01:26:36;5.60;90.50
20081;DHT22;10200;49.232;9.222;2023-04-03T01:29:02;5.60;90.50
20081;DHT22;10200;49.232;9.222;2023-04-03T01:34:01;5.50;90.90
20081;DHT22;10200;49.232;9.222;2023-04-03T01:36:29;5.50;90.70
20081;DHT22;10200;49.232;9.222;2023-04-03T01:38:56;5.50;90.70
20081;DHT22;10200;49.232;9.222;2023-04-03T01:41:23;5.50;90.80
20081;DHT22;10200;49.232;9.222;2023-04-03T01:43:49;5.60;91.00
20081;DHT22;10200;49.232;9.222;2023-04-03T01:46:16;5.60;90.90
20081;DHT22;10200;49.232;9.222;2023-04-03T01:48:42;5.60;91.00
20081;DHT22;10200;49.232;9.222;2023-04-03T01:51:08;5.60;90.80
20081;DHT22;10200;49.232;9.222;2023-04-03T01:53:34;5.60;90.90
20081;DHT22;10200;49.232;9.222;2023-04-03T01:56:00;5.60;91.10
20081;DHT22;10200;49.232;9.222;2023-04-03T01:58:25;5.60;90.90
20081;DHT22;10200;49.232;9.222;2023-04-03T02:00:51;5.70;90.90
20081;DHT22;10200;49.232;9.222;2023-04-03T02:03:17;5.60;90.60
20081;DHT22;10200;49.232;9.222;2023-04-03T02:05:43;5.60;91.00
20081;DHT22;10200;49.232;9.222;2023-04-03T02:08:10;5.60;90.80
20081;DHT22;10200;49.232;9.222;2023-04-03T02:10:36;5.60;90.90
20081;DHT22;10200;49.232;9.222;2023-04-03T02:13:02;5.50;91.00
20081;DHT22;10200;49.232;9.222;2023-04-03T02:15:27;5.50;90.80
20081;DHT22;10200;49.232;9.222;2023-04-03T02:17:53;5.50;90.80
20081;DHT22;10200;49.232;9.222;2023-04-03T02:20:19;5.40;90.70
20081;DHT22;10200;49.232;9.222;2023-04-03T02:22:45;5.40;90.90
20081;DHT22;10200;49.232;9.222;2023-04-03T02:25:10;5.40;90.80
20081;DHT22;10200;49.232;9.222;2023-04-03T02:27:37;5.40;91.00
20081;DHT22;10200;49.232;9.222;2023-04-03T02:30:04;5.40;91.20
20081;DHT22;10200;49.232;9.222;2023-04-03T02:32:30;5.40;91.10
20081;DHT22;10200;49.232;9.222;2023-04-03T02:34:56;5.50;91.30
20081;DHT22;10200;49.232;9.222;2023-04-03T02:37:22;5.50;91.00
20081;DHT22;10200;49.232;9.222;2023-04-03T02:39:47;5.40;91.00
20081;DHT22;10200;49.232;9.222;2023-04-03T02:42:13;5.40;91.10
20081;DHT22;10200;49.232;9.222;2023-04-03T02:44:39;5.50;91.20
20081;DHT22;10200;49.232;9.222;2023-04-03T02:47:05;5.50;91.20
20081;DHT22;10200;49.232;9.222;2023-04-03T02:49:31;5.50;91.30
20081;DHT22;10200;49.232;9.222;2023-04-03T02:51:56;5.50;90.90
20081;DHT22;10200;49.232;9.222;2023-04-03T02:54:22;5.50;91.10
20081;DHT22;10200;49.232;9.222;2023-04-03T02:56:49;5.40;90.90
20081;DHT22;10200;49.232;9.222;2023-04-03T02:59:15;5.40;91.00
20081;DHT22;10200;49.232;9.222;2023-04-03T03:01:40;5.40;91.00
20081;DHT22;10200;49.232;9.222;2023-04-03T03:04:06;5.40;90.90
20081;DHT22;10200;49.232;9.222;2023-04-03T03:06:32;5.40;91.00
20081;DHT22;10200;49.232;9.222;2023-04-03T03:08:57;5.40;91.10
20081;DHT22;10200;49.232;9.222;2023-04-03T03:11:25;5.40;90.90
20081;DHT22;10200;49.232;9.222;2023-04-03T03:13:51;5.30;90.90
20081;DHT22;10200;49.232;9.222;2023-04-03T03:16:17;5.20;90.70
20081;DHT22;10200;49.232;9.222;2023-04-03T03:18:42;5.20;90.90
20081;DHT22;10200;49.232;9.222;2023-04-03T03:21:09;5.10;91.10
20081;DHT22;10200;49.232;9.222;2023-04-03T03:23:35;5.10;91.00
20081;DHT22;10200;49.232;9.222;2023-04-03T03:26:04;5.10;91.50
20081;DHT22;10200;49.232;9.222;2023-04-03T03:28:29;5.00;91.10
20081;DHT22;10200;49.232;9.222;2023-04-03T03:30:56;5.00;91.40
20081;DHT22;10200;49.232;9.222;2023-04-03T03:33:22;4.90;91.20
20081;DHT22;10200;49.232;9.222;2023-04-03T03:35:48;4.80;91.30
20081;DHT22;10200;49.232;9.222;2023-04-03T03:38:13;4.70;91.30
20081;DHT22;10200;49.232;9.222;2023-04-03T03:40:39;4.60;91.40
20081;DHT22;10200;49.232;9.222;2023-04-03T03:43:05;4.60;91.40
20081;DHT22;10200;49.232;9.222;2023-04-03T03:45:31;4.50;91.80
20081;DHT22;10200;49.232;9.222;2023-04-03T03:47:57;4.50;92.10
20081;DHT22;10200;49.232;9.222;2023-04-03T03:50:22;4.40;91.70
20081;DHT22;10200;49.232;9.222;2023-04-03T03:52:48;4.30;92.10
20081;DHT22;10200;49.232;9.222;2023-04-03T03:55:14;4.30;92.30
20081;DHT22;10200;49.232;9.222;2023-04-03T03:57:40;4.30;92.30
20081;DHT22;10200;49.232;9.222;2023-04-03T04:00:07;4.20;92.30
20081;DHT22;10200;49.232;9.222;2023-04-03T04:02:34;4.20;92.60
20081;DHT22;10200;49.232;9.222;2023-04-03T04:05:01;4.10;92.70
20081;DHT22;10200;49.232;9.222;2023-04-03T04:07:26;4.10;92.90
20081;DHT22;10200;49.232;9.222;2023-04-03T04:09:53;4.00;93.20
20081;DHT22;10200;49.232;9.222;2023-04-03T04:12:20;4.00;93.20
20081;DHT22;10200;49.232;9.222;2023-04-03T04:14:47;3.90;93.20
20081;DHT22;10200;49.232;9.222;2023-04-03T04:17:16;3.90;93.50
20081;DHT22;10200;49.232;9.222;2023-04-03T04:19:41;3.90;93.60
20081;DHT22;10200;49.232;9.222;2023-04-03T04:22:07;4.20;94.30
20081;DHT22;10200;49.232;9.222;2023-04-03T04:24:33;3.90;94.30
20081;DHT22;10200;49.232;9.222;2023-04-03T04:26:58;3.90;94.20
20081;DHT22;10200;49.232;9.222;2023-04-03T04:29:24;3.80;94.40
20081;DHT22;10200;49.232;9.222;2023-04-03T04:31:50;3.90;94.40
20081;DHT22;10200;49.232;9.222;2023-04-03T04:34:15;3.90;94.60
20081;DHT22;10200;49.232;9.222;2023-04-03T04:36:41;3.80;94.60
20081;DHT22;10200;49.232;9.222;2023-04-03T04:39:07;3.80;94.70
20081;DHT22;10200;49.232;9.222;2023-04-03T04:41:33;3.90;95.10
20081;DHT22;10200;49.232;9.222;2023-04-03T04:43:59;3.80;94.90
20081;DHT22;10200;49.232;9.222;2023-04-03T04:46:26;3.90;94.90
20081;DHT22;10200;49.232;9.222;2023-04-03T04:48:52;3.90;95.30
20081;DHT22;10200;49.232;9.222;2023-04-03T04:51:18;3.90;95.30
20081;DHT22;10200;49.232;9.222;2023-04-03T04:53:44;3.90;95.40
20081;DHT22;10200;49.232;9.222;2023-04-03T04:56:10;3.90;95.20
20081;DHT22;10200;49.232;9.222;2023-04-03T04:58:36;3.90;95.10
20081;DHT22;10200;49.232;9.222;2023-04-03T05:01:04;3.80;95.10
20081;DHT22;10200;49.232;9.222;2023-04-03T05:03:30;3.90;95.40
20081;DHT22;10200;49.232;9.222;2023-04-03T05:05:56;3.90;95.80
20081;DHT22;10200;49.232;9.222;2023-04-03T05:08:23;3.80;95.60
20081;DHT22;10200;49.232;9.222;2023-04-03T05:10:48;3.80;95.70
20081;DHT22;10200;49.232;9.222;2023-04-03T05:13:14;3.80;95.60
20081;DHT22;10200;49.232;9.222;2023-04-03T05:15:40;3.80;96.30
20081;DHT22;10200;49.232;9.222;2023-04-03T05:18:06;3.80;96.20
20081;DHT22;10200;49.232;9.222;2023-04-03T05:20:32;3.90;96.00
20081;DHT22;10200;49.232;9.222;2023-04-03T05:23:01;4.00;97.10
20081;DHT22;10200;49.232;9.222;2023-04-03T05:25:28;4.20;97.00
20081;DHT22;10200;49.232;9.222;2023-04-03T05:27:57;4.50;96.40
20081;DHT22;10200;49.232;9.222;2023-04-03T05:30:23;4.70;95.60
20081;DHT22;10200;49.232;9.222;2023-04-03T05:32:48;4.90;95.30
20081;DHT22;10200;49.232;9.222;2023-04-03T05:35:14;5.40;96.90
20081;DHT22;10200;49.232;9.222;2023-04-03T05:37:40;6.40;95.30
20081;DHT22;10200;49.232;9.222;2023-04-03T05:40:07;7.40;93.20
20081;DHT22;10200;49.232;9.222;2023-04-03T05:42:34;8.20;90.40
20081;DHT22;10200;49.232;9.222;2023-04-03T05:45:00;8.70;85.90
20081;DHT22;10200;49.232;9.222;2023-04-03T05:47:25;9.30;85.50
20081;DHT22;10200;49.232;9.222;2023-04-03T05:49:51;10.20;81.70
20081;DHT22;10200;49.232;9.222;2023-04-03T05:52:25;11.20;76.10
20081;DHT22;10200;49.232;9.222;2023-04-03T05:54:52;12.40;69.20
20081;DHT22;10200;49.232;9.222;2023-04-03T05:57:18;12.70;67.00
20081;DHT22;10200;49.232;9.222;2023-04-03T05:59:45;13.60;64.10
20081;DHT22;10200;49.232;9.222;2023-04-03T06:02:13;14.30;60.90
20081;DHT22;10200;49.232;9.222;2023-04-03T06:04:39;14.90;57.90
20081;DHT22;10200;49.232;9.222;2023-04-03T06:09:31;16.30;52.30
20081;DHT22;10200;49.232;9.222;2023-04-03T06:11:57;16.70;51.00
20081;DHT22;10200;49.232;9.222;2023-04-03T06:14:25;16.80;49.00
20081;DHT22;10200;49.232;9.222;2023-04-03T06:16:52;16.70;48.10
20081;DHT22;10200;49.232;9.222;2023-04-03T06:19:19;16.80;48.30
20081;DHT22;10200;49.232;9.222;2023-04-03T06:21:45;17.10;48.00
20081;DHT22;10200;49.232;9.222;2023-04-03T06:24:15;17.30;47.50
20081;DHT22;10200;49.232;9.222;2023-04-03T06:26:41;17.70;46.10
20081;DHT22;10200;49.232;9.222;2023-04-03T06:29:07;18.20;45.40
20081;DHT22;10200;49.232;9.222;2023-04-03T06:31:33;18.20;43.80
20081;DHT22;10200;49.232;9.222;2023-04-03T06:34:03;18.20;43.70
20081;DHT22;10200;49.232;9.222;2023-04-03T06:36:29;18.00;43.40
20081;DHT22;10200;49.232;9.222;2023-04-03T06:38:55;18.00;44.20
20081;DHT22;10200;49.232;9.222;2023-04-03T06:41:21;18.00;44.50
20081;DHT22;10200;49.232;9.222;2023-04-03T06:43:47;17.80;44.00
20081;DHT22;10200;49.232;9.222;2023-04-03T06:46:18;17.90;44.70
20081;DHT22;10200;49.232;9.222;2023-04-03T06:48:44;17.60;45.10
20081;DHT22;10200;49.232;9.222;2023-04-03T06:51:24;17.50;45.00
20081;DHT22;10200;49.232;9.222;2023-04-03T06:53:54;17.00;46.20
20081;DHT22;10200;49.232;9.222;2023-04-03T06:56:21;16.50;46.40
20081;DHT22;10200;49.232;9.222;2023-04-03T06:58:48;16.30;46.70
20081;DHT22;10200;49.232;9.222;2023-04-03T07:01:16;15.70;48.30
20081;DHT22;10200;49.232;9.222;2023-04-03T07:03:44;15.30;49.20
20081;DHT22;10200;49.232;9.222;2023-04-03T07:06:13;15.20;49.80
20081;DHT22;10200;49.232;9.222;2023-04-03T07:08:39;14.70;51.30
20081;DHT22;10200;49.232;9.222;2023-04-03T07:11:07;14.70;51.30
20081;DHT22;10200;49.232;9.222;2023-04-03T07:13:33;14.80;51.60
20081;DHT22;10200;49.232;9.222;2023-04-03T07:15:59;14.90;52.90
20081;DHT22;10200;49.232;9.222;2023-04-03T07:18:25;15.20;52.10
20081;DHT22;10200;49.232;9.222;2023-04-03T07:20:51;15.20;51.80
20081;DHT22;10200;49.232;9.222;2023-04-03T07:23:18;14.60;50.90
20081;DHT22;10200;49.232;9.222;2023-04-03T07:25:48;13.70;51.30
20081;DHT22;10200;49.232;9.222;2023-04-03T07:28:15;12.70;53.00
20081;DHT22;10200;49.232;9.222;2023-04-03T07:30:50;11.70;55.50
20081;DHT22;10200;49.232;9.222;2023-04-03T07:33:18;10.60;58.00
20081;DHT22;10200;49.232;9.222;2023-04-03T07:35:45;10.10;60.10
20081;DHT22;10200;49.232;9.222;2023-04-03T07:38:11;9.50;60.80
20081;DHT22;10200;49.232;9.222;2023-04-03T07:40:37;9.00;62.90
20081;DHT22;10200;49.232;9.222;2023-04-03T07:43:05;8.80;64.90
20081;DHT22;10200;49.232;9.222;2023-04-03T07:45:36;8.70;65.10
20081;DHT22;10200;49.232;9.222;2023-04-03T07:48:01;8.60;66.10
20081;DHT22;10200;49.232;9.222;2023-04-03T07:50:27;8.70;66.90
20081;DHT22;10200;49.232;9.222;2023-04-03T07:52:55;8.50;66.00
20081;DHT22;10200;49.232;9.222;2023-04-03T07:55:24;8.50;67.40
20081;DHT22;10200;49.232;9.222;2023-04-03T07:57:50;8.40;67.10
20081;DHT22;10200;49.232;9.222;2023-04-03T08:00:19;8.20;67.60
20081;DHT22;10200;49.232;9.222;2023-04-03T08:02:45;8.20;68.20
20081;DHT22;10200;49.232;9.222;2023-04-03T08:05:17;8.30;68.50
20081;DHT22;10200;49.232;9.222;2023-04-03T08:07:44;8.40;68.00
20081;DHT22;10200;49.232;9.222;2023-04-03T08:10:09;8.60;68.70
20081;DHT22;10200;49.232;9.222;2023-04-03T08:12:37;8.60;67.30
20081;DHT22;10200;49.232;9.222;2023-04-03T08:15:03;8.60;67.30
20081;DHT22;10200;49.232;9.222;2023-04-03T08:17:31;8.60;66.20
20081;DHT22;10200;49.232;9.222;2023-04-03T08:19:58;8.70;66.90
20081;DHT22;10200;49.232;9.222;2023-04-03T08:22:25;8.90;65.70
20081;DHT22;10200;49.232;9.222;2023-04-03T08:24:51;9.40;65.50
20081;DHT22;10200;49.232;9.222;2023-04-03T08:27:17;9.80;65.20
20081;DHT22;10200;49.232;9.222;2023-04-03T08:29:43;9.80;62.80
20081;DHT22;10200;49.232;9.222;2023-04-03T08:32:10;9.80;62.80
20081;DHT22;10200;49.232;9.222;2023-04-03T08:34:36;9.70;63.00
20081;DHT22;10200;49.232;9.222;2023-04-03T08:37:04;9.60;62.40
20081;DHT22;10200;49.232;9.222;2023-04-03T08:39:30;9.40;63.40
20081;DHT22;10200;49.232;9.222;2023-04-03T08:41:59;9.50;64.10
20081;DHT22;10200;49.232;9.222;2023-04-03T08:44:46;9.40;61.70
20081;DHT22;10200;49.232;9.222;2023-04-03T08:47:23;9.50;64.90
20081;DHT22;10200;49.232;9.222;2023-04-03T08:50:03;9.40;62.60
20081;DHT22;10200;49.232;9.222;2023-04-03T08:52:44;9.20;63.30
20081;DHT22;10200;49.232;9.222;2023-04-03T08:55:33;9.20;63.40
20081;DHT22;10200;49.232;9.222;2023-04-03T08:58:19;9.40;64.50
20081;DHT22;10200;49.232;9.222;2023-04-03T09:01:01;9.80;64.90
20081;DHT22;10200;49.232;9.222;2023-04-03T09:03:31;10.10;63.60
20081;DHT22;10200;49.232;9.222;2023-04-03T09:06:03;10.10;62.00
20081;DHT22;10200;49.232;9.222;2023-04-03T09:14:33;10.40;62.10
20081;DHT22;10200;49.232;9.222;2023-04-03T09:22:45;10.60;61.50
20081;DHT22;10200;49.232;9.222;2023-04-03T09:25:31;10.70;59.90
20081;DHT22;10200;49.232;9.222;2023-04-03T09:28:03;10.80;60.80
20081;DHT22;10200;49.232;9.222;2023-04-03T09:30:31;11.00;60.40
20081;DHT22;10200;49.232;9.222;2023-04-03T09:32:57;10.70;59.40
20081;DHT22;10200;49.232;9.222;2023-04-03T09:35:31;10.70;60.20
20081;DHT22;10200;49.232;9.222;2023-04-03T09:38:02;10.70;61.00
20081;DHT22;10200;49.232;9.222;2023-04-03T09:40:50;10.60;59.20
20081;DHT22;10200;49.232;9.222;2023-04-03T09:45:43;10.70;60.00
20081;DHT22;10200;49.232;9.222;2023-04-03T09:53:37;10.20;60.90
20081;DHT22;10200;49.232;9.222;2023-04-03T09:58:53;10.30;61.60
20081;DHT22;10200;49.232;9.222;2023-04-03T10:01:35;10.70;61.60
20081;DHT22;10200;49.232;9.222;2023-04-03T10:04:16;11.00;61.40
20081;DHT22;10200;49.232;9.222;2023-04-03T10:06:44;11.30;59.60
20081;DHT22;10200;49.232;9.222;2023-04-03T10:09:25;11.40;59.20
20081;DHT22;10200;49.232;9.222;2023-04-03T10:12:06;11.70;59.70
20081;DHT22;10200;49.232;9.222;2023-04-03T10:14:37;12.10;58.40
20081;DHT22;10200;49.232;9.222;2023-04-03T10:18:15;12.10;56.70
20081;DHT22;10200;49.232;9.222;2023-04-03T10:28:31;10.90;57.70
20081;DHT22;10200;49.232;9.222;2023-04-03T10:44:42;10.00;59.60
20081;DHT22;10200;49.232;9.222;2023-04-03T10:59:18;9.60;61.20
20081;DHT22;10200;49.232;9.222;2023-04-03T11:01:59;9.60;62.20
20081;DHT22;10200;49.232;9.222;2023-04-03T11:04:28;9.60;62.10
20081;DHT22;10200;49.232;9.222;2023-04-03T11:07:15;9.50;61.00
20081;DHT22;10200;49.232;9.222;2023-04-03T11:09:44;9.30;60.40
20081;DHT22;10200;49.232;9.222;2023-04-03T11:12:26;9.30;59.60
20081;DHT22;10200;49.232;9.222;2023-04-03T11:14:53;9.20;59.00
20081;DHT22;10200;49.232;9.222;2023-04-03T11:20:10;9.30;59.00
20081;DHT22;10200;49.232;9.222;2023-04-03T11:22:42;9.30;59.60
20081;DHT22;10200;49.232;9.222;2023-04-03T11:30:13;9.30;60.70
20081;DHT22;10200;49.232;9.222;2023-04-03T11:33:15;9.30;59.30
20081;DHT22;10200;49.232;9.222;2023-04-03T11:35:49;9.30;60.00
20081;DHT22;10200;49.232;9.222;2023-04-03T11:38:37;9.40;60.00
20081;DHT22;10200;49.232;9.222;2023-04-03T11:41:07;9.50;60.10
20081;DHT22;10200;49.232;9.222;2023-04-03T11:43:36;9.60;60.20
20081;DHT22;10200;49.232;9.222;2023-04-03T11:46:07;9.70;60.10
20081;DHT22;10200;49.232;9.222;2023-04-03T11:53:43;9.60;59.50
20081;DHT22;10200;49.232;9.222;2023-04-03T12:04:21;10.20;59.30
20081;DHT22;10200;49.232;9.222;2023-04-03T12:12:29;10.30;57.00
20081;DHT22;10200;49.232;9.222;2023-04-03T12:15:22;10.20;57.50
20081;DHT22;10200;49.232;9.222;2023-04-03T12:17:48;10.10;57.50
20081;DHT22;10200;49.232;9.222;2023-04-03T12:20:46;10.10;58.30
20081;DHT22;10200;49.232;9.222;2023-04-03T12:23:32;10.00;57.80
20081;DHT22;10200;49.232;9.222;2023-04-03T12:26:20;9.80;57.20
20081;DHT22;10200;49.232;9.222;2023-04-03T12:28:51;9.80;58.10
20081;DHT22;10200;49.232;9.222;2023-04-03T12:31:19;9.90;58.10
20081;DHT22;10200;49.232;9.222;2023-04-03T12:34:05;10.10;58.80
20081;DHT22;10200;49.232;9.222;2023-04-03T12:39:54;10.50;56.20
20081;DHT22;10200;49.232;9.222;2023-04-03T12:47:34;10.00;55.90
20081;DHT22;10200;49.232;9.222;2023-04-03T12:50:04;9.90;55.70
20081;DHT22;10200;49.232;9.222;2023-04-03T12:52:44;9.80;55.90
20081;DHT22;10200;49.232;9.222;2023-04-03T12:55:19;9.90;55.80
20081;DHT22;10200;49.232;9.222;2023-04-03T12:57:45;10.00;56.10
20081;DHT22;10200;49.232;9.222;2023-04-03T13:00:35;10.10;56.10
20081;DHT22;10200;49.232;9.222;2023-04-03T13:03:06;10.20;55.20
20081;DHT22;10200;49.232;9.222;2023-04-03T13:05:32;10.20;55.80
20081;DHT22;10200;49.232;9.222;2023-04-03T13:08:01;10.00;54.80
20081;DHT22;10200;49.232;9.222;2023-04-03T13:10:29;10.00;55.10
20081;DHT22;10200;49.232;9.222;2023-04-03T13:12:58;9.90;55.00
20081;DHT22;10200;49.232;9.222;2023-04-03T13:15:30;9.70;55.20
20081;DHT22;10200;49.232;9.222;2023-04-03T13:17:56;9.60;55.30
20081;DHT22;10200;49.232;9.222;2023-04-03T13:20:30;9.60;55.80
20081;DHT22;10200;49.232;9.222;2023-04-03T13:25:29;9.70;55.30
20081;DHT22;10200;49.232;9.222;2023-04-03T13:27:58;9.70;54.90
20081;DHT22;10200;49.232;9.222;2023-04-03T13:30:29;9.70;54.50
20081;DHT22;10200;49.232;9.222;2023-04-03T13:32:57;9.70;54.90
20081;DHT22;10200;49.232;9.222;2023-04-03T13:35:27;9.70;54.40
20081;DHT22;10200;49.232;9.222;2023-04-03T13:37:58;9.70;55.30
20081;DHT22;10200;49.232;9.222;2023-04-03T13:40:24;9.70;54.50
20081;DHT22;10200;49.232;9.222;2023-04-03T13:43:26;9.70;54.60
20081;DHT22;10200;49.232;9.222;2023-04-03T13:46:20;9.70;53.70
20081;DHT22;10200;49.232;9.222;2023-04-03T13:48:50;9.60;54.10
20081;DHT22;10200;49.232;9.222;2023-04-03T13:53:47;9.40;53.90
20081;DHT22;10200;49.232;9.222;2023-04-03T13:56:24;9.40;54.40
20081;DHT22;10200;49.232;9.222;2023-04-03T14:01:45;9.60;53.20
20081;DHT22;10200;49.232;9.222;2023-04-03T14:04:19;9.70;53.50
20081;DHT22;10200;49.232;9.222;2023-04-03T14:06:46;9.50;52.90
20081;DHT22;10200;49.232;9.222;2023-04-03T14:09:13;9.40;53.20
20081;DHT22;10200;49.232;9.222;2023-04-03T14:11:40;9.40;52.80
20081;DHT22;10200;49.232;9.222;2023-04-03T14:14:15;9.40;54.00
20081;DHT22;10200;49.232;9.222;2023-04-03T14:16:45;9.70;53.50
20081;DHT22;10200;49.232;9.222;2023-04-03T14:19:21;9.70;52.50
20081;DHT22;10200;49.232;9.222;2023-04-03T14:21:47;9.70;52.30
20081;DHT22;10200;49.232;9.222;2023-04-03T14:24:13;9.60;52.30
20081;DHT22;10200;49.232;9.222;2023-04-03T14:26:38;9.70;52.60
20081;DHT22;10200;49.232;9.222;2023-04-03T14:29:04;9.80;52.00
20081;DHT22;10200;49.232;9.222;2023-04-03T14:31:32;9.80;52.30
20081;DHT22;10200;49.232;9.222;2023-04-03T14:33:58;9.90;52.10
20081;DHT22;10200;49.232;9.222;2023-04-03T14:36:26;9.90;51.90
20081;DHT22;10200;49.232;9.222;2023-04-03T14:38:53;9.90;51.70
20081;DHT22;10200;49.232;9.222;2023-04-03T14:41:21;10.00;51.90
20081;DHT22;10200;49.232;9.222;2023-04-03T14:43:48;10.10;51.80
20081;DHT22;10200;49.232;9.222;2023-04-03T14:46:39;10.10;51.80
20081;DHT22;10200;49.232;9.222;2023-04-03T14:49:09;10.00;51.60
20081;DHT22;10200;49.232;9.222;2023-04-03T14:51:38;9.80;52.00
20081;DHT22;10200;49.232;9.222;2023-04-03T14:54:05;9.70;52.90
20081;DHT22;10200;49.232;9.222;2023-04-03T14:56:31;9.70;53.40
20081;DHT22;10200;49.232;9.222;2023-04-03T14:58:59;9.70;52.80
20081;DHT22;10200;49.232;9.222;2023-04-03T15:01:26;9.80;52.80
20081;DHT22;10200;49.232;9.222;2023-04-03T15:03:52;9.90;52.20
20081;DHT22;10200;49.232;9.222;2023-04-03T15:06:18;10.00;51.90
20081;DHT22;10200;49.232;9.222;2023-04-03T15:08:46;9.80;50.30
20081;DHT22;10200;49.232;9.222;2023-04-03T15:11:13;9.60;50.80
20081;DHT22;10200;49.232;9.222;2023-04-03T15:13:39;9.40;51.40
20081;DHT22;10200;49.232;9.222;2023-04-03T15:16:31;9.30;51.60
20081;DHT22;10200;49.232;9.222;2023-04-03T15:18:57;9.50;52.50
20081;DHT22;10200;49.232;9.222;2023-04-03T15:21:22;9.60;51.80
20081;DHT22;10200;49.232;9.222;2023-04-03T15:23:48;9.70;51.60
20081;DHT22;10200;49.232;9.222;2023-04-03T15:26:13;9.70;51.90
20081;DHT22;10200;49.232;9.222;2023-04-03T15:28:42;9.70;51.20
20081;DHT22;10200;49.232;9.222;2023-04-03T15:31:09;9.60;51.50
20081;DHT22;10200;49.232;9.222;2023-04-03T15:33:35;9.60;52.10
20081;DHT22;10200;49.232;9.222;2023-04-03T15:36:02;9.60;52.10
20081;DHT22;10200;49.232;9.222;2023-04-03T15:38:28;9.60;52.00
20081;DHT22;10200;49.232;9.222;2023-04-03T15:40:55;9.70;52.30
20081;DHT22;10200;49.232;9.222;2023-04-03T15:43:21;9.80;52.20
20081;DHT22;10200;49.232;9.222;2023-04-03T15:45:47;9.80;52.10
20081;DHT22;10200;49.232;9.222;2023-04-03T15:48:13;9.80;52.60
20081;DHT22;10200;49.232;9.222;2023-04-03T15:50:41;9.80;51.80
20081;DHT22;10200;49.232;9.222;2023-04-03T15:53:07;9.80;52.10
20081;DHT22;10200;49.232;9.222;2023-04-03T15:55:34;9.80;51.80
20081;DHT22;10200;49.232;9.222;2023-04-03T15:58:01;9.60;52.10
20081;DHT22;10200;49.232;9.222;2023-04-03T16:00:28;9.70;52.80
20081;DHT22;10200;49.232;9.222;2023-04-03T16:03:05;9.70;53.00
20081;DHT22;10200;49.232;9.222;2023-04-03T16:05:37;9.70;52.50
20081;DHT22;10200;49.232;9.222;2023-04-03T16:08:03;9.60;52.50
20081;DHT22;10200;49.232;9.222;2023-04-03T16:10:30;9.70;52.40
20081;DHT22;10200;49.232;9.222;2023-04-03T16:12:56;9.60;52.70
20081;DHT22;10200;49.232;9.222;2023-04-03T16:15:23;9.60;52.10
20081;DHT22;10200;49.232;9.222;2023-04-03T16:17:50;9.60;51.80
20081;DHT22;10200;49.232;9.222;2023-04-03T16:20:16;9.60;51.60
20081;DHT22;10200;49.232;9.222;2023-04-03T16:22:44;9.60;51.60
20081;DHT22;10200;49.232;9.222;2023-04-03T16:25:11;9.50;50.40
20081;DHT22;10200;49.232;9.222;2023-04-03T16:27:37;9.40;50.80
20081;DHT22;10200;49.232;9.222;2023-04-03T16:30:05;9.30;51.20
20081;DHT22;10200;49.232;9.222;2023-04-03T16:32:33;9.30;51.90
20081;DHT22;10200;49.232;9.222;2023-04-03T16:34:59;9.30;51.40
20081;DHT22;10200;49.232;9.222;2023-04-03T16:37:26;9.30;51.60
20081;DHT22;10200;49.232;9.222;2023-04-03T16:39:52;9.20;51.30
20081;DHT22;10200;49.232;9.222;2023-04-03T16:42:18;9.20;51.10
20081;DHT22;10200;49.232;9.222;2023-04-03T16:44:44;9.10;51.40
20081;DHT22;10200;49.232;9.222;2023-04-03T16:47:09;9.00;51.80
20081;DHT22;10200;49.232;9.222;2023-04-03T16:49:36;9.00;51.50
20081;DHT22;10200;49.232;9.222;2023-04-03T16:52:03;8.90;52.10
20081;DHT22;10200;49.232;9.222;2023-04-03T16:54:30;9.00;52.00
20081;DHT22;10200;49.232;9.222;2023-04-03T16:56:56;9.00;51.40
20081;DHT22;10200;49.232;9.222;2023-04-03T16:59:22;8.90;51.70
20081;DHT22;10200;49.232;9.222;2023-04-03T17:01:47;8.90;52.00
20081;DHT22;10200;49.232;9.222;2023-04-03T17:04:13;8.90;52.00
20081;DHT22;10200;49.232;9.222;2023-04-03T17:06:40;8.90;51.20
20081;DHT22;10200;49.232;9.222;2023-04-03T17:09:06;8.90;51.50
20081;DHT22;10200;49.232;9.222;2023-04-03T17:11:32;8.80;51.60
20081;DHT22;10200;49.232;9.222;2023-04-03T17:13:58;8.80;51.80
20081;DHT22;10200;49.232;9.222;2023-04-03T17:16:25;8.70;52.30
20081;DHT22;10200;49.232;9.222;2023-04-03T17:18:52;8.70;52.00
20081;DHT22;10200;49.232;9.222;2023-04-03T17:21:19;8.60;52.50
20081;DHT22;10200;49.232;9.222;2023-04-03T17:23:54;8.60;52.60
20081;DHT22;10200;49.232;9.222;2023-04-03T17:26:23;8.50;53.00
20081;DHT22;10200;49.232;9.222;2023-04-03T17:28:49;8.40;52.90
20081;DHT22;10200;49.232;9.222;2023-04-03T17:31:14;8.30;52.90
20081;DHT22;10200;49.232;9.222;2023-04-03T17:33:41;8.20;52.90
20081;DHT22;10200;49.232;9.222;2023-04-03T17:36:07;8.10;53.40
20081;DHT22;10200;49.232;9.222;2023-04-03T17:38:34;8.00;53.90
20081;DHT22;10200;49.232;9.222;2023-04-03T17:41:03;8.00;54.20